sensor_id;sensor_type;location;lat;lon;timestamp;pressure;altitude;pressure_sealevel;temperature;humidity
11413;BME280;5762;43.256;26.960;2024-01-06T00:01:54;100407.41;;;8.33;100.00
11413;BME280;5762;43.256;26.960;2024-01-06T00:04:23;100400.63;;;8.21;100.00
11413;BME280;5762;43.256;26.960;2024-01-06T00:06:52;100411.42;;;8.23;100.00
11413;BME280;5762;43.256;26.960;2024-01-06T00:09:21;100411.95;;;8.23;100.00
11413;BME280;5762;43.256;26.960;2024-01-06T00:11:50;100426.27;;;8.26;100.00
11413;BME280;5762;43.256;26.960;2024-01-06T00:14:18;100433.00;;;8.23;100.00
11413;BME280;5762;43.256;26.960;2024-01-06T00:16:47;100438.36;;;8.16;100.00
11413;BME280;5762;43.256;26.960;2024-01-06T00:19:15;100449.64;;;8.07;100.00
11413;BME280;5762;43.256;26.960;2024-01-06T00:21:44;100473.12;;;8.12;100.00
11413;BME280;5762;43.256;26.960;2024-01-06T00:24:13;100465.90;;;8.25;100.00
11413;BME280;5762;43.256;26.960;2024-01-06T00:26:42;100445.36;;;8.14;100.00
11413;BME280;5762;43.256;26.960;2024-01-06T00:29:11;100452.39;;;8.18;100.00
11413;BME280;5762;43.256;26.960;2024-01-06T00:31:40;100433.20;;;8.06;100.00
11413;BME280;5762;43.256;26.960;2024-01-06T00:34:08;100438.02;;;7.99;100.00
11413;BME280;5762;43.256;26.960;2024-01-06T00:36:37;100423.69;;;7.84;100.00
11413;BME280;5762;43.256;26.960;2024-01-06T00:39:06;100440.63;;;7.77;100.00
11413;BME280;5762;43.256;26.960;2024-01-06T00:41:36;100451.70;;;7.80;100.00
11413;BME280;5762;43.256;26.960;2024-01-06T00:44:04;100464.92;;;7.84;100.00
11413;BME280;5762;43.256;26.960;2024-01-06T00:46:33;100476.92;;;7.59;100.00
11413;BME280;5762;43.256;26.960;2024-01-06T00:49:02;100501.89;;;7.49;100.00
11413;BME280;5762;43.256;26.960;2024-01-06T00:51:31;100516.79;;;7.59;100.00
11413;BME280;5762;43.256;26.960;2024-01-06T00:53:59;100517.61;;;7.65;100.00
11413;BME280;5762;43.256;26.960;2024-01-06T00:56:28;100514.38;;;7.65;100.00
11413;BME280;5762;43.256;26.960;2024-01-06T00:58:57;100503.36;;;7.69;100.00
11413;BME280;5762;43.256;26.960;2024-01-06T01:01:25;100494.58;;;7.87;100.00
11413;BME280;5762;43.256;26.960;2024-01-06T01:03:54;100475.48;;;7.93;100.00
11413;BME280;5762;43.256;26.960;2024-01-06T01:06:23;100456.38;;;8.05;100.00
11413;BME280;5762;43.256;26.960;2024-01-06T01:08:52;100451.84;;;8.16;100.00
11413;BME280;5762;43.256;26.960;2024-01-06T01:11:21;100442.69;;;8.19;100.00
11413;BME280;5762;43.256;26.960;2024-01-06T01:13:49;100421.95;;;8.27;100.00
11413;BME280;5762;43.256;26.960;2024-01-06T01:16:18;100415.50;;;8.33;100.00
11413;BME280;5762;43.256;26.960;2024-01-06T01:18:47;100419.48;;;8.16;100.00
11413;BME280;5762;43.256;26.960;2024-01-06T01:21:15;100422.67;;;8.02;100.00
11413;BME280;5762;43.256;26.960;2024-01-06T01:23:44;100432.10;;;8.02;100.00
11413;BME280;5762;43.256;26.960;2024-01-06T01:26:13;100432.11;;;8.05;100.00
11413;BME280;5762;43.256;26.960;2024-01-06T01:28:42;100421.57;;;7.98;100.00
11413;BME280;5762;43.256;26.960;2024-01-06T01:31:10;100431.77;;;7.84;100.00
11413;BME280;5762;43.256;26.960;2024-01-06T01:33:38;100443.34;;;7.79;100.00
11413;BME280;5762;43.256;26.960;2024-01-06T01:36:07;100436.64;;;7.87;100.00
11413;BME280;5762;43.256;26.960;2024-01-06T01:38:36;100441.97;;;7.77;100.00
11413;BME280;5762;43.256;26.960;2024-01-06T01:41:05;100444.08;;;7.62;100.00
11413;BME280;5762;43.256;26.960;2024-01-06T01:43:33;100452.45;;;7.70;100.00
11413;BME280;5762;43.256;26.960;2024-01-06T01:46:02;100453.87;;;7.83;100.00
11413;BME280;5762;43.256;26.960;2024-01-06T01:48:30;100446.63;;;7.89;100.00
11413;BME280;5762;43.256;26.960;2024-01-06T01:50:59;100442.88;;;8.00;100.00
11413;BME280;5762;43.256;26.960;2024-01-06T01:53:28;100424.54;;;7.99;100.00
11413;BME280;5762;43.256;26.960;2024-01-06T01:55:58;100413.76;;;7.99;100.00
11413;BME280;5762;43.256;26.960;2024-01-06T01:58:26;100407.58;;;7.96;100.00
11413;BME280;5762;43.256;26.960;2024-01-06T02:00:55;100415.67;;;8.06;100.00
11413;BME280;5762;43.256;26.960;2024-01-06T02:03:24;100412.77;;;8.21;100.00
11413;BME280;5762;43.256;26.960;2024-01-06T02:05:52;100375.89;;;8.52;100.00
11413;BME280;5762;43.256;26.960;2024-01-06T02:08:21;100358.60;;;8.40;100.00
11413;BME280;5762;43.256;26.960;2024-01-06T02:10:53;100361.04;;;8.44;100.00
11413;BME280;5762;43.256;26.960;2024-01-06T02:13:20;100354.30;;;8.47;100.00
11413;BME280;5762;43.256;26.960;2024-01-06T02:15:48;100346.48;;;8.48;100.00
11413;BME280;5762;43.256;26.960;2024-01-06T02:18:16;100337.85;;;8.56;100.00
11413;BME280;5762;43.256;26.960;2024-01-06T02:20:45;100314.38;;;8.59;100.00
11413;BME280;5762;43.256;26.960;2024-01-06T02:23:15;100309.52;;;8.53;100.00
11413;BME280;5762;43.256;26.960;2024-01-06T02:25:43;100304.13;;;8.48;100.00
11413;BME280;5762;43.256;26.960;2024-01-06T02:28:12;100323.28;;;8.52;100.00
11413;BME280;5762;43.256;26.960;2024-01-06T02:30:41;100320.59;;;8.52;100.00
11413;BME280;5762;43.256;26.960;2024-01-06T02:33:10;100307.63;;;8.44;100.00
11413;BME280;5762;43.256;26.960;2024-01-06T02:35:39;100310.05;;;8.40;100.00
11413;BME280;5762;43.256;26.960;2024-01-06T02:38:08;100298.19;;;8.38;100.00
11413;BME280;5762;43.256;26.960;2024-01-06T02:40:37;100311.93;;;8.29;100.00
11413;BME280;5762;43.256;26.960;2024-01-06T02:43:06;100315.95;;;8.17;100.00
11413;BME280;5762;43.256;26.960;2024-01-06T02:45:35;100335.37;;;8.16;100.00
11413;BME280;5762;43.256;26.960;2024-01-06T02:48:04;100337.77;;;7.95;100.00
11413;BME280;5762;43.256;26.960;2024-01-06T02:50:33;100351.25;;;8.07;100.00
11413;BME280;5762;43.256;26.960;2024-01-06T02:53:02;100348.28;;;8.06;100.00
11413;BME280;5762;43.256;26.960;2024-01-06T02:55:31;100357.72;;;8.06;100.00
11413;BME280;5762;43.256;26.960;2024-01-06T02:58:00;100343.75;;;8.27;100.00
11413;BME280;5762;43.256;26.960;2024-01-06T03:00:29;100337.30;;;8.38;100.00
11413;BME280;5762;43.256;26.960;2024-01-06T03:02:58;100327.31;;;8.39;100.00
11413;BME280;5762;43.256;26.960;2024-01-06T03:05:27;100330.30;;;8.50;100.00
11413;BME280;5762;43.256;26.960;2024-01-06T03:07:56;100335.43;;;8.64;100.00
11413;BME280;5762;43.256;26.960;2024-01-06T03:10:25;100328.66;;;8.67;100.00
11413;BME280;5762;43.256;26.960;2024-01-06T03:12:54;100301.97;;;8.53;100.00
11413;BME280;5762;43.256;26.960;2024-01-06T03:15:23;100302.78;;;8.51;100.00
11413;BME280;5762;43.256;26.960;2024-01-06T03:17:51;100311.95;;;8.55;100.00
11413;BME280;5762;43.256;26.960;2024-01-06T03:20:20;100293.33;;;8.43;100.00
11413;BME280;5762;43.256;26.960;2024-01-06T03:22:49;100291.44;;;8.31;100.00
11413;BME280;5762;43.256;26.960;2024-01-06T03:25:18;100292.23;;;8.21;100.00
11413;BME280;5762;43.256;26.960;2024-01-06T03:27:47;100307.34;;;8.25;100.00
11413;BME280;5762;43.256;26.960;2024-01-06T03:30:16;100301.13;;;8.17;100.00
11413;BME280;5762;43.256;26.960;2024-01-06T03:32:45;100307.87;;;8.24;100.00
11413;BME280;5762;43.256;26.960;2024-01-06T03:35:14;100316.22;;;8.13;100.00
11413;BME280;5762;43.256;26.960;2024-01-06T03:37:43;100325.88;;;7.98;100.00
11413;BME280;5762;43.256;26.960;2024-01-06T03:40:12;100327.25;;;7.93;100.00
11413;BME280;5762;43.256;26.960;2024-01-06T03:42:41;100333.69;;;7.85;100.00
11413;BME280;5762;43.256;26.960;2024-01-06T03:45:10;100340.14;;;7.81;100.00
11413;BME280;5762;43.256;26.960;2024-01-06T03:47:38;100347.93;;;7.75;100.00
11413;BME280;5762;43.256;26.960;2024-01-06T03:50:07;100363.27;;;7.69;100.00
11413;BME280;5762;43.256;26.960;2024-01-06T03:52:36;100361.92;;;7.69;100.00
11413;BME280;5762;43.256;26.960;2024-01-06T03:55:05;100364.09;;;7.75;100.00
11413;BME280;5762;43.256;26.960;2024-01-06T03:57:34;100373.00;;;7.78;100.00
11413;BME280;5762;43.256;26.960;2024-01-06T04:00:03;100376.51;;;7.79;100.00
11413;BME280;5762;43.256;26.960;2024-01-06T04:02:33;100383.53;;;7.82;100.00
11413;BME280;5762;43.256;26.960;2024-01-06T04:05:02;100371.42;;;7.87;100.00
11413;BME280;5762;43.256;26.960;2024-01-06T04:07:31;100370.38;;;7.93;100.00
11413;BME280;5762;43.256;26.960;2024-01-06T04:10:00;100361.47;;;7.90;100.00
11413;BME280;5762;43.256;26.960;2024-01-06T04:12:29;100357.95;;;7.90;100.00
11413;BME280;5762;43.256;26.960;2024-01-06T04:14:57;100359.04;;;7.99;100.00
11413;BME280;5762;43.256;26.960;2024-01-06T04:17:25;100352.86;;;8.03;100.00
11413;BME280;5762;43.256;26.960;2024-01-06T04:19:54;100346.11;;;8.03;100.00
11413;BME280;5762;43.256;26.960;2024-01-06T04:22:22;100359.33;;;8.05;100.00
11413;BME280;5762;43.256;26.960;2024-01-06T04:24:51;100350.70;;;7.95;100.00
11413;BME280;5762;43.256;26.960;2024-01-06T04:27:20;100351.78;;;7.94;100.00
11413;BME280;5762;43.256;26.960;2024-01-06T04:29:48;100356.08;;;7.90;100.00
11413;BME280;5762;43.256;26.960;2024-01-06T04:32:18;100374.41;;;7.93;100.00
11413;BME280;5762;43.256;26.960;2024-01-06T04:34:46;100379.81;;;7.96;100.00
11413;BME280;5762;43.256;26.960;2024-01-06T04:37:15;100388.16;;;7.94;100.00
11413;BME280;5762;43.256;26.960;2024-01-06T04:39:43;100390.31;;;7.92;100.00
11413;BME280;5762;43.256;26.960;2024-01-06T04:42:11;100397.29;;;7.86;100.00
11413;BME280;5762;43.256;26.960;2024-01-06T04:44:40;100393.26;;;7.88;100.00
11413;BME280;5762;43.256;26.960;2024-01-06T04:47:08;100383.56;;;7.97;100.00
11413;BME280;5762;43.256;26.960;2024-01-06T04:49:37;100378.98;;;7.98;100.00
11413;BME280;5762;43.256;26.960;2024-01-06T04:52:06;100374.14;;;8.00;100.00
11413;BME280;5762;43.256;26.960;2024-01-06T04:54:34;100373.63;;;8.08;100.00
11413;BME280;5762;43.256;26.960;2024-01-06T04:57:02;100363.70;;;8.26;100.00
11413;BME280;5762;43.256;26.960;2024-01-06T04:59:31;100353.49;;;8.46;100.00
11413;BME280;5762;43.256;26.960;2024-01-06T05:01:59;100339.72;;;8.40;100.00
11413;BME280;5762;43.256;26.960;2024-01-06T05:04:27;100324.34;;;8.33;100.00
11413;BME280;5762;43.256;26.960;2024-01-06T05:06:57;100341.87;;;8.35;100.00
11413;BME280;5762;43.256;26.960;2024-01-06T05:09:25;100345.66;;;8.42;100.00
11413;BME280;5762;43.256;26.960;2024-01-06T05:11:53;100342.14;;;8.74;100.00
11413;BME280;5762;43.256;26.960;2024-01-06T05:14:22;100323.79;;;8.84;100.00
11413;BME280;5762;43.256;26.960;2024-01-06T05:16:51;100327.02;;;8.99;100.00
11413;BME280;5762;43.256;26.960;2024-01-06T05:19:20;100307.31;;;8.96;100.00
11413;BME280;5762;43.256;26.960;2024-01-06T05:21:49;100303.23;;;9.01;100.00
11413;BME280;5762;43.256;26.960;2024-01-06T05:24:18;100293.82;;;8.91;100.00
11413;BME280;5762;43.256;26.960;2024-01-06T05:26:47;100282.81;;;8.59;100.00
11413;BME280;5762;43.256;26.960;2024-01-06T05:29:16;100287.40;;;8.44;100.00
11413;BME280;5762;43.256;26.960;2024-01-06T05:31:45;100305.73;;;8.39;100.00
11413;BME280;5762;43.256;26.960;2024-01-06T05:34:14;100322.73;;;8.34;100.00
11413;BME280;5762;43.256;26.960;2024-01-06T05:36:43;100343.48;;;8.31;100.00
11413;BME280;5762;43.256;26.960;2024-01-06T05:39:12;100340.20;;;8.12;100.00
11413;BME280;5762;43.256;26.960;2024-01-06T05:41:41;100357.17;;;7.94;100.00
11413;BME280;5762;43.256;26.960;2024-01-06T05:44:10;100374.09;;;7.80;100.00
11413;BME280;5762;43.256;26.960;2024-01-06T05:46:39;100394.27;;;7.74;100.00
11413;BME280;5762;43.256;26.960;2024-01-06T05:49:08;100401.50;;;7.66;100.00
11413;BME280;5762;43.256;26.960;2024-01-06T05:51:37;100427.17;;;7.79;100.00
11413;BME280;5762;43.256;26.960;2024-01-06T05:54:06;100446.91;;;7.92;100.00
11413;BME280;5762;43.256;26.960;2024-01-06T05:56:35;100448.48;;;7.83;100.00
11413;BME280;5762;43.256;26.960;2024-01-06T05:59:03;100456.04;;;7.86;100.00
11413;BME280;5762;43.256;26.960;2024-01-06T06:01:32;100449.29;;;7.84;100.00
11413;BME280;5762;43.256;26.960;2024-01-06T06:04:01;100456.26;;;7.77;100.00
11413;BME280;5762;43.256;26.960;2024-01-06T06:06:29;100468.63;;;7.73;100.00
11413;BME280;5762;43.256;26.960;2024-01-06T06:08:59;100494.59;;;7.89;100.00
11413;BME280;5762;43.256;26.960;2024-01-06T06:11:28;100505.58;;;7.78;100.00
11413;BME280;5762;43.256;26.960;2024-01-06T06:13:56;100540.78;;;8.11;100.00
11413;BME280;5762;43.256;26.960;2024-01-06T06:16:25;100556.33;;;8.43;100.00
11413;BME280;5762;43.256;26.960;2024-01-06T06:18:54;100525.05;;;8.45;100.00
11413;BME280;5762;43.256;26.960;2024-01-06T06:21:23;100533.70;;;8.52;100.00
11413;BME280;5762;43.256;26.960;2024-01-06T06:23:51;100519.36;;;8.41;100.00
11413;BME280;5762;43.256;26.960;2024-01-06T06:26:19;100513.98;;;8.44;100.00
11413;BME280;5762;43.256;26.960;2024-01-06T06:28:48;100529.97;;;8.70;100.00
11413;BME280;5762;43.256;26.960;2024-01-06T06:31:17;100534.86;;;8.84;100.00
11413;BME280;5762;43.256;26.960;2024-01-06T06:33:46;100510.54;;;8.71;100.00
11413;BME280;5762;43.256;26.960;2024-01-06T06:36:15;100502.72;;;8.62;100.00
11413;BME280;5762;43.256;26.960;2024-01-06T06:38:44;100485.94;;;8.47;100.00
11413;BME280;5762;43.256;26.960;2024-01-06T06:41:13;100473.49;;;8.36;100.00
11413;BME280;5762;43.256;26.960;2024-01-06T06:43:42;100494.28;;;8.40;100.00
11413;BME280;5762;43.256;26.960;2024-01-06T06:46:11;100508.35;;;8.53;100.00
11413;BME280;5762;43.256;26.960;2024-01-06T06:48:40;100519.98;;;8.63;100.00
11413;BME280;5762;43.256;26.960;2024-01-06T06:51:08;100530.81;;;8.84;100.00
11413;BME280;5762;43.256;26.960;2024-01-06T06:53:37;100550.00;;;9.05;100.00
11413;BME280;5762;43.256;26.960;2024-01-06T06:56:06;100557.61;;;9.28;100.00
11413;BME280;5762;43.256;26.960;2024-01-06T06:58:35;100540.84;;;9.41;100.00
11413;BME280;5762;43.256;26.960;2024-01-06T07:01:03;100543.55;;;9.57;100.00
11413;BME280;5762;43.256;26.960;2024-01-06T07:03:32;100516.25;;;9.58;100.00
11413;BME280;5762;43.256;26.960;2024-01-06T07:06:01;100515.66;;;9.74;100.00
11413;BME280;5762;43.256;26.960;2024-01-06T07:08:30;100504.89;;;9.64;100.00
11413;BME280;5762;43.256;26.960;2024-01-06T07:10:59;100484.64;;;9.54;100.00
11413;BME280;5762;43.256;26.960;2024-01-06T07:13:28;100504.85;;;9.74;100.00
11413;BME280;5762;43.256;26.960;2024-01-06T07:15:56;100514.02;;;9.91;100.00
11413;BME280;5762;43.256;26.960;2024-01-06T07:18:25;100520.48;;;10.02;100.00
11413;BME280;5762;43.256;26.960;2024-01-06T07:20:54;100543.88;;;10.40;100.00
11413;BME280;5762;43.256;26.960;2024-01-06T07:23:23;100540.78;;;10.69;100.00
11413;BME280;5762;43.256;26.960;2024-01-06T07:25:51;100535.41;;;11.06;100.00
11413;BME280;5762;43.256;26.960;2024-01-06T07:28:21;100508.50;;;11.15;100.00
11413;BME280;5762;43.256;26.960;2024-01-06T07:30:49;100494.61;;;11.24;100.00
11413;BME280;5762;43.256;26.960;2024-01-06T07:33:19;100492.64;;;11.34;100.00
11413;BME280;5762;43.256;26.960;2024-01-06T07:35:48;100464.66;;;11.41;100.00
11413;BME280;5762;43.256;26.960;2024-01-06T07:38:17;100475.70;;;11.74;100.00
11413;BME280;5762;43.256;26.960;2024-01-06T07:40:46;100470.39;;;11.90;100.00
11413;BME280;5762;43.256;26.960;2024-01-06T07:43:15;100468.28;;;12.08;100.00
11413;BME280;5762;43.256;26.960;2024-01-06T07:45:44;100466.78;;;12.19;100.00
11413;BME280;5762;43.256;26.960;2024-01-06T07:48:13;100463.13;;;12.28;100.00
11413;BME280;5762;43.256;26.960;2024-01-06T07:50:42;100449.76;;;12.34;100.00
11413;BME280;5762;43.256;26.960;2024-01-06T07:53:11;100427.72;;;12.38;100.00
11413;BME280;5762;43.256;26.960;2024-01-06T07:55:40;100419.28;;;12.40;100.00
11413;BME280;5762;43.256;26.960;2024-01-06T07:58:09;100411.62;;;12.45;100.00
11413;BME280;5762;43.256;26.960;2024-01-06T08:00:38;100396.98;;;12.59;100.00
11413;BME280;5762;43.256;26.960;2024-01-06T08:03:06;100393.31;;;12.69;100.00
11413;BME280;5762;43.256;26.960;2024-01-06T08:05:34;100414.66;;;12.92;100.00
11413;BME280;5762;43.256;26.960;2024-01-06T08:08:03;100439.63;;;13.10;100.00
11413;BME280;5762;43.256;26.960;2024-01-06T08:10:32;100462.20;;;13.27;100.00
11413;BME280;5762;43.256;26.960;2024-01-06T08:13:00;100461.94;;;13.42;100.00
11413;BME280;5762;43.256;26.960;2024-01-06T08:15:29;100444.27;;;13.42;100.00
11413;BME280;5762;43.256;26.960;2024-01-06T08:17:58;100447.44;;;13.60;100.00
11413;BME280;5762;43.256;26.960;2024-01-06T08:20:27;100425.30;;;13.81;100.00
11413;BME280;5762;43.256;26.960;2024-01-06T08:22:56;100415.45;;;13.96;100.00
11413;BME280;5762;43.256;26.960;2024-01-06T08:25:25;100382.78;;;14.21;100.00
11413;BME280;5762;43.256;26.960;2024-01-06T08:27:54;100360.61;;;14.38;100.00
11413;BME280;5762;43.256;26.960;2024-01-06T08:30:23;100333.52;;;14.56;100.00
11413;BME280;5762;43.256;26.960;2024-01-06T08:32:51;100274.38;;;14.67;100.00
11413;BME280;5762;43.256;26.960;2024-01-06T08:35:20;100258.70;;;14.73;100.00
11413;BME280;5762;43.256;26.960;2024-01-06T08:37:49;100202.45;;;14.97;100.00
11413;BME280;5762;43.256;26.960;2024-01-06T08:40:17;100163.70;;;15.17;100.00
11413;BME280;5762;43.256;26.960;2024-01-06T08:42:46;100147.20;;;15.39;100.00
11413;BME280;5762;43.256;26.960;2024-01-06T08:45:15;100129.23;;;15.56;100.00
11413;BME280;5762;43.256;26.960;2024-01-06T08:47:44;100124.19;;;15.69;100.00
11413;BME280;5762;43.256;26.960;2024-01-06T08:50:13;100105.40;;;15.76;100.00
11413;BME280;5762;43.256;26.960;2024-01-06T08:52:42;100058.82;;;15.90;100.00
11413;BME280;5762;43.256;26.960;2024-01-06T08:55:11;99988.92;;;15.97;100.00
11413;BME280;5762;43.256;26.960;2024-01-06T08:57:40;99890.78;;;16.01;100.00
11413;BME280;5762;43.256;26.960;2024-01-06T09:00:08;99848.14;;;16.02;100.00
11413;BME280;5762;43.256;26.960;2024-01-06T09:02:39;99819.14;;;16.04;100.00
11413;BME280;5762;43.256;26.960;2024-01-06T09:05:08;99799.89;;;16.00;100.00
11413;BME280;5762;43.256;26.960;2024-01-06T09:07:36;99804.75;;;15.95;100.00
11413;BME280;5762;43.256;26.960;2024-01-06T09:10:05;99790.58;;;16.01;100.00
11413;BME280;5762;43.256;26.960;2024-01-06T09:12:34;99773.97;;;16.00;100.00
11413;BME280;5762;43.256;26.960;2024-01-06T09:15:03;99766.48;;;16.03;100.00
11413;BME280;5762;43.256;26.960;2024-01-06T09:17:32;99760.12;;;16.05;100.00
11413;BME280;5762;43.256;26.960;2024-01-06T09:20:00;99750.13;;;16.09;100.00
11413;BME280;5762;43.256;26.960;2024-01-06T09:22:29;99721.26;;;16.15;100.00
11413;BME280;5762;43.256;26.960;2024-01-06T09:24:58;99699.00;;;16.25;100.00
11413;BME280;5762;43.256;26.960;2024-01-06T09:27:27;99677.61;;;16.33;100.00
11413;BME280;5762;43.256;26.960;2024-01-06T09:29:56;99648.73;;;16.44;100.00
11413;BME280;5762;43.256;26.960;2024-01-06T09:32:25;99620.38;;;16.42;100.00
11413;BME280;5762;43.256;26.960;2024-01-06T09:34:54;99611.39;;;16.42;100.00
11413;BME280;5762;43.256;26.960;2024-01-06T09:37:22;99598.08;;;16.47;100.00
11413;BME280;5762;43.256;26.960;2024-01-06T09:39:51;99590.11;;;16.48;100.00
11413;BME280;5762;43.256;26.960;2024-01-06T09:42:20;99596.37;;;16.42;100.00
11413;BME280;5762;43.256;26.960;2024-01-06T09:44:49;99635.63;;;16.37;100.00
11413;BME280;5762;43.256;26.960;2024-01-06T09:47:17;99668.73;;;16.24;100.00
11413;BME280;5762;43.256;26.960;2024-01-06T09:49:48;99692.82;;;16.16;100.00
11413;BME280;5762;43.256;26.960;2024-01-06T09:52:19;99710.10;;;16.14;100.00
11413;BME280;5762;43.256;26.960;2024-01-06T09:54:53;99700.65;;;16.11;100.00
11413;BME280;5762;43.256;26.960;2024-01-06T09:57:15;99697.61;;;16.19;100.00
11413;BME280;5762;43.256;26.960;2024-01-06T09:59:44;99689.31;;;16.21;100.00
11413;BME280;5762;43.256;26.960;2024-01-06T10:02:14;99710.70;;;16.19;100.00
11413;BME280;5762;43.256;26.960;2024-01-06T10:04:44;99740.23;;;16.11;100.00
11413;BME280;5762;43.256;26.960;2024-01-06T10:07:12;99758.42;;;16.07;100.00
11413;BME280;5762;43.256;26.960;2024-01-06T10:09:41;99770.00;;;16.04;100.00
11413;BME280;5762;43.256;26.960;2024-01-06T10:12:09;99751.92;;;16.05;100.00
11413;BME280;5762;43.256;26.960;2024-01-06T10:14:38;99728.28;;;16.09;100.00
11413;BME280;5762;43.256;26.960;2024-01-06T10:17:07;99707.50;;;16.17;100.00
11413;BME280;5762;43.256;26.960;2024-01-06T10:19:36;99693.20;;;16.26;100.00
11413;BME280;5762;43.256;26.960;2024-01-06T10:22:04;99672.59;;;16.29;100.00
11413;BME280;5762;43.256;26.960;2024-01-06T10:24:34;99655.31;;;16.37;100.00
11413;BME280;5762;43.256;26.960;2024-01-06T10:27:02;99656.14;;;16.50;100.00
11413;BME280;5762;43.256;26.960;2024-01-06T10:29:31;99629.41;;;16.61;100.00
11413;BME280;5762;43.256;26.960;2024-01-06T10:31:59;99567.02;;;16.82;100.00
11413;BME280;5762;43.256;26.960;2024-01-06T10:34:28;99573.50;;;16.95;100.00
11413;BME280;5762;43.256;26.960;2024-01-06T10:36:56;99548.71;;;17.16;100.00
11413;BME280;5762;43.256;26.960;2024-01-06T10:39:25;99486.06;;;17.33;100.00
11413;BME280;5762;43.256;26.960;2024-01-06T10:41:55;99444.63;;;17.47;100.00
11413;BME280;5762;43.256;26.960;2024-01-06T10:44:25;99436.67;;;17.41;100.00
11413;BME280;5762;43.256;26.960;2024-01-06T10:46:54;99412.43;;;17.34;100.00
11413;BME280;5762;43.256;26.960;2024-01-06T10:49:24;99414.30;;;17.30;100.00
11413;BME280;5762;43.256;26.960;2024-01-06T10:51:53;99407.02;;;17.28;100.00
11413;BME280;5762;43.256;26.960;2024-01-06T10:54:23;99399.27;;;17.30;100.00
11413;BME280;5762;43.256;26.960;2024-01-06T10:56:52;99400.28;;;17.31;100.00
11413;BME280;5762;43.256;26.960;2024-01-06T10:59:22;99398.63;;;17.21;100.00
11413;BME280;5762;43.256;26.960;2024-01-06T11:01:52;99408.09;;;17.17;100.00
11413;BME280;5762;43.256;26.960;2024-01-06T11:04:21;99399.95;;;17.05;100.00
11413;BME280;5762;43.256;26.960;2024-01-06T11:06:50;99380.83;;;16.99;100.00
11413;BME280;5762;43.256;26.960;2024-01-06T11:09:19;99373.70;;;16.94;100.00
11413;BME280;5762;43.256;26.960;2024-01-06T11:11:48;99366.00;;;16.84;100.00
11413;BME280;5762;43.256;26.960;2024-01-06T11:14:22;99392.41;;;16.86;100.00
11413;BME280;5762;43.256;26.960;2024-01-06T11:16:51;99387.97;;;16.88;100.00
11413;BME280;5762;43.256;26.960;2024-01-06T11:22:29;99391.74;;;17.05;100.00
11413;BME280;5762;43.256;26.960;2024-01-06T11:24:42;99371.81;;;17.04;100.00
11413;BME280;5762;43.256;26.960;2024-01-06T11:27:11;99352.73;;;17.14;100.00
11413;BME280;5762;43.256;26.960;2024-01-06T11:29:42;99350.16;;;17.27;100.00
11413;BME280;5762;43.256;26.960;2024-01-06T11:34:49;99313.61;;;17.51;100.00
11413;BME280;5762;43.256;26.960;2024-01-06T11:37:19;99308.44;;;17.56;100.00
11413;BME280;5762;43.256;26.960;2024-01-06T11:39:48;99303.94;;;17.63;100.00
11413;BME280;5762;43.256;26.960;2024-01-06T11:42:17;99305.91;;;17.72;100.00
11413;BME280;5762;43.256;26.960;2024-01-06T11:44:49;99311.28;;;17.85;100.00
11413;BME280;5762;43.256;26.960;2024-01-06T11:47:17;99302.98;;;17.81;100.00
11413;BME280;5762;43.256;26.960;2024-01-06T11:49:46;99301.94;;;17.70;100.00
11413;BME280;5762;43.256;26.960;2024-01-06T11:52:16;99306.48;;;17.72;100.00
11413;BME280;5762;43.256;26.960;2024-01-06T11:54:44;99280.05;;;17.70;100.00
11413;BME280;5762;43.256;26.960;2024-01-06T11:57:13;99283.90;;;17.59;100.00
11413;BME280;5762;43.256;26.960;2024-01-06T11:59:42;99290.39;;;17.45;100.00
11413;BME280;5762;43.256;26.960;2024-01-06T12:02:11;99304.47;;;17.37;100.00
11413;BME280;5762;43.256;26.960;2024-01-06T12:04:42;99323.95;;;17.26;100.00
11413;BME280;5762;43.256;26.960;2024-01-06T12:07:10;99337.28;;;17.06;100.00
11413;BME280;5762;43.256;26.960;2024-01-06T12:09:39;99360.70;;;16.97;100.00
11413;BME280;5762;43.256;26.960;2024-01-06T12:12:08;99369.09;;;16.83;100.00
11413;BME280;5762;43.256;26.960;2024-01-06T12:14:40;99390.41;;;16.71;100.00
11413;BME280;5762;43.256;26.960;2024-01-06T12:17:09;99398.08;;;16.59;100.00
11413;BME280;5762;43.256;26.960;2024-01-06T12:19:39;99419.72;;;16.52;100.00
11413;BME280;5762;43.256;26.960;2024-01-06T12:22:10;99431.80;;;16.45;100.00
11413;BME280;5762;43.256;26.960;2024-01-06T12:24:37;99458.43;;;16.36;100.00
11413;BME280;5762;43.256;26.960;2024-01-06T12:27:07;99469.36;;;16.30;100.00
11413;BME280;5762;43.256;26.960;2024-01-06T12:29:39;99465.72;;;16.38;100.00
11413;BME280;5762;43.256;26.960;2024-01-06T12:32:10;99473.22;;;16.53;100.00
11413;BME280;5762;43.256;26.960;2024-01-06T12:34:39;99467.19;;;16.54;100.00
11413;BME280;5762;43.256;26.960;2024-01-06T12:37:08;99457.73;;;16.57;100.00
11413;BME280;5762;43.256;26.960;2024-01-06T12:39:36;99467.25;;;16.63;100.00
11413;BME280;5762;43.256;26.960;2024-01-06T12:42:05;99458.95;;;16.72;100.00
11413;BME280;5762;43.256;26.960;2024-01-06T12:44:35;99457.58;;;16.78;100.00
11413;BME280;5762;43.256;26.960;2024-01-06T12:47:04;99442.31;;;16.83;100.00
11413;BME280;5762;43.256;26.960;2024-01-06T12:49:32;99441.53;;;16.77;100.00
11413;BME280;5762;43.256;26.960;2024-01-06T12:52:01;99453.61;;;16.69;100.00
11413;BME280;5762;43.256;26.960;2024-01-06T12:54:30;99470.92;;;16.67;100.00
11413;BME280;5762;43.256;26.960;2024-01-06T12:56:59;99489.70;;;16.69;100.00
11413;BME280;5762;43.256;26.960;2024-01-06T12:59:27;99501.41;;;16.63;100.00
11413;BME280;5762;43.256;26.960;2024-01-06T13:01:57;99527.41;;;16.57;100.00